sensor_id;sensor_type;location;lat;lon;timestamp;P1;durP1;ratioP1;P2;durP2;ratioP2
75340;SDS011;64931;47.562;18.920;2023-07-02T00:01:43;16.60;;;12.30;;
75340;SDS011;64931;47.562;18.920;2023-07-02T00:04:08;16.30;;;12.70;;
75340;SDS011;64931;47.562;18.920;2023-07-02T00:06:34;15.90;;;12.80;;
75340;SDS011;64931;47.562;18.920;2023-07-02T00:09:08;18.50;;;13.10;;
75340;SDS011;64931;47.562;18.920;2023-07-02T00:11:36;17.30;;;13.20;;
75340;SDS011;64931;47.562;18.920;2023-07-02T00:14:06;18.70;;;12.90;;
75340;SDS011;64931;47.562;18.920;2023-07-02T00:16:32;17.40;;;13.10;;
75340;SDS011;64931;47.562;18.920;2023-07-02T00:18:58;16.00;;;12.90;;
75340;SDS011;64931;47.562;18.920;2023-07-02T00:21:25;18.20;;;12.90;;
75340;SDS011;64931;47.562;18.920;2023-07-02T00:23:53;18.40;;;13.20;;
75340;SDS011;64931;47.562;18.920;2023-07-02T00:26:22;15.30;;;11.80;;
75340;SDS011;64931;47.562;18.920;2023-07-02T00:28:49;15.40;;;12.10;;
75340;SDS011;64931;47.562;18.920;2023-07-02T00:31:14;17.60;;;12.90;;
75340;SDS011;64931;47.562;18.920;2023-07-02T00:33:40;15.50;;;11.70;;
75340;SDS011;64931;47.562;18.920;2023-07-02T00:36:05;17.30;;;11.30;;
75340;SDS011;64931;47.562;18.920;2023-07-02T00:38:30;16.10;;;12.40;;
75340;SDS011;64931;47.562;18.920;2023-07-02T00:40:56;16.10;;;12.90;;
75340;SDS011;64931;47.562;18.920;2023-07-02T00:43:22;15.70;;;12.10;;
75340;SDS011;64931;47.562;18.920;2023-07-02T00:45:47;15.30;;;11.60;;
75340;SDS011;64931;47.562;18.920;2023-07-02T00:48:13;14.90;;;11.20;;
75340;SDS011;64931;47.562;18.920;2023-07-02T00:50:39;16.30;;;11.50;;
75340;SDS011;64931;47.562;18.920;2023-07-02T00:53:04;13.90;;;10.40;;
75340;SDS011;64931;47.562;18.920;2023-07-02T00:55:30;17.00;;;11.00;;
75340;SDS011;64931;47.562;18.920;2023-07-02T00:57:55;15.50;;;11.30;;
75340;SDS011;64931;47.562;18.920;2023-07-02T01:00:22;15.40;;;10.40;;
75340;SDS011;64931;47.562;18.920;2023-07-02T01:02:54;15.10;;;10.80;;
75340;SDS011;64931;47.562;18.920;2023-07-02T01:05:27;14.30;;;10.40;;
75340;SDS011;64931;47.562;18.920;2023-07-02T01:08:06;15.10;;;10.60;;
75340;SDS011;64931;47.562;18.920;2023-07-02T01:10:32;13.80;;;10.40;;
75340;SDS011;64931;47.562;18.920;2023-07-02T01:13:05;12.60;;;9.80;;
75340;SDS011;64931;47.562;18.920;2023-07-02T01:15:33;14.30;;;11.20;;
75340;SDS011;64931;47.562;18.920;2023-07-02T01:17:59;15.40;;;10.70;;
75340;SDS011;64931;47.562;18.920;2023-07-02T01:20:25;12.90;;;9.30;;
75340;SDS011;64931;47.562;18.920;2023-07-02T01:22:52;13.20;;;10.20;;
75340;SDS011;64931;47.562;18.920;2023-07-02T01:25:17;13.30;;;9.60;;
75340;SDS011;64931;47.562;18.920;2023-07-02T01:27:43;13.50;;;10.30;;
75340;SDS011;64931;47.562;18.920;2023-07-02T01:30:09;12.60;;;9.40;;
75340;SDS011;64931;47.562;18.920;2023-07-02T01:32:35;13.20;;;10.00;;
75340;SDS011;64931;47.562;18.920;2023-07-02T01:35:02;14.70;;;10.40;;
75340;SDS011;64931;47.562;18.920;2023-07-02T01:37:27;12.00;;;9.30;;
75340;SDS011;64931;47.562;18.920;2023-07-02T01:39:53;14.80;;;10.50;;
75340;SDS011;64931;47.562;18.920;2023-07-02T01:42:18;14.00;;;10.00;;
75340;SDS011;64931;47.562;18.920;2023-07-02T01:44:45;14.20;;;10.30;;
75340;SDS011;64931;47.562;18.920;2023-07-02T01:47:12;13.30;;;9.40;;
75340;SDS011;64931;47.562;18.920;2023-07-02T01:49:37;16.00;;;10.30;;
75340;SDS011;64931;47.562;18.920;2023-07-02T01:52:03;15.10;;;9.80;;
75340;SDS011;64931;47.562;18.920;2023-07-02T01:54:30;14.20;;;9.70;;
75340;SDS011;64931;47.562;18.920;2023-07-02T01:56:57;13.90;;;9.30;;
75340;SDS011;64931;47.562;18.920;2023-07-02T01:59:22;14.10;;;9.70;;
75340;SDS011;64931;47.562;18.920;2023-07-02T02:01:48;15.30;;;9.70;;
75340;SDS011;64931;47.562;18.920;2023-07-02T02:04:14;12.80;;;9.20;;
75340;SDS011;64931;47.562;18.920;2023-07-02T02:06:40;13.20;;;9.40;;
75340;SDS011;64931;47.562;18.920;2023-07-02T02:09:06;12.80;;;9.30;;
75340;SDS011;64931;47.562;18.920;2023-07-02T02:11:32;12.30;;;8.60;;
75340;SDS011;64931;47.562;18.920;2023-07-02T02:13:58;10.90;;;8.10;;
75340;SDS011;64931;47.562;18.920;2023-07-02T02:16:26;12.20;;;8.40;;
75340;SDS011;64931;47.562;18.920;2023-07-02T02:18:52;11.60;;;7.80;;
75340;SDS011;64931;47.562;18.920;2023-07-02T02:21:18;11.60;;;7.90;;
75340;SDS011;64931;47.562;18.920;2023-07-02T02:23:44;12.50;;;8.20;;
75340;SDS011;64931;47.562;18.920;2023-07-02T02:26:10;10.60;;;7.80;;
75340;SDS011;64931;47.562;18.920;2023-07-02T02:28:36;12.90;;;7.50;;
75340;SDS011;64931;47.562;18.920;2023-07-02T02:31:01;11.90;;;7.70;;
75340;SDS011;64931;47.562;18.920;2023-07-02T02:33:27;10.10;;;7.20;;
75340;SDS011;64931;47.562;18.920;2023-07-02T02:35:52;10.60;;;6.80;;
75340;SDS011;64931;47.562;18.920;2023-07-02T02:38:18;9.60;;;7.00;;
75340;SDS011;64931;47.562;18.920;2023-07-02T02:40:43;9.10;;;7.10;;
75340;SDS011;64931;47.562;18.920;2023-07-02T02:43:09;12.70;;;6.80;;
75340;SDS011;64931;47.562;18.920;2023-07-02T02:45:34;9.70;;;7.10;;
75340;SDS011;64931;47.562;18.920;2023-07-02T02:47:59;10.10;;;7.00;;
75340;SDS011;64931;47.562;18.920;2023-07-02T02:50:25;11.10;;;7.10;;
75340;SDS011;64931;47.562;18.920;2023-07-02T02:52:50;10.00;;;6.80;;
75340;SDS011;64931;47.562;18.920;2023-07-02T02:55:15;14.50;;;6.90;;
75340;SDS011;64931;47.562;18.920;2023-07-02T02:57:41;8.70;;;6.60;;
75340;SDS011;64931;47.562;18.920;2023-07-02T03:00:08;11.20;;;6.50;;
75340;SDS011;64931;47.562;18.920;2023-07-02T03:02:34;13.20;;;6.20;;
75340;SDS011;64931;47.562;18.920;2023-07-02T03:05:01;9.80;;;6.40;;
75340;SDS011;64931;47.562;18.920;2023-07-02T03:07:31;9.20;;;6.90;;
75340;SDS011;64931;47.562;18.920;2023-07-02T03:09:56;12.40;;;6.70;;
75340;SDS011;64931;47.562;18.920;2023-07-02T03:12:22;12.00;;;6.80;;
75340;SDS011;64931;47.562;18.920;2023-07-02T03:14:47;8.40;;;6.50;;
75340;SDS011;64931;47.562;18.920;2023-07-02T03:17:17;10.40;;;6.90;;
75340;SDS011;64931;47.562;18.920;2023-07-02T03:19:44;9.40;;;6.60;;
75340;SDS011;64931;47.562;18.920;2023-07-02T03:22:09;10.10;;;5.90;;
75340;SDS011;64931;47.562;18.920;2023-07-02T03:24:34;9.70;;;5.90;;
75340;SDS011;64931;47.562;18.920;2023-07-02T03:27:00;9.00;;;6.00;;
75340;SDS011;64931;47.562;18.920;2023-07-02T03:29:25;10.00;;;5.90;;
75340;SDS011;64931;47.562;18.920;2023-07-02T03:31:51;8.80;;;6.00;;
75340;SDS011;64931;47.562;18.920;2023-07-02T03:34:16;9.60;;;5.90;;
75340;SDS011;64931;47.562;18.920;2023-07-02T03:36:41;9.00;;;6.20;;
75340;SDS011;64931;47.562;18.920;2023-07-02T03:39:07;8.40;;;6.10;;
75340;SDS011;64931;47.562;18.920;2023-07-02T03:41:33;10.60;;;6.50;;
75340;SDS011;64931;47.562;18.920;2023-07-02T03:43:58;10.10;;;6.80;;
75340;SDS011;64931;47.562;18.920;2023-07-02T03:46:23;11.50;;;6.80;;
75340;SDS011;64931;47.562;18.920;2023-07-02T03:48:49;8.30;;;6.10;;
75340;SDS011;64931;47.562;18.920;2023-07-02T03:51:14;7.60;;;5.40;;
75340;SDS011;64931;47.562;18.920;2023-07-02T03:53:40;8.10;;;6.50;;
75340;SDS011;64931;47.562;18.920;2023-07-02T03:56:06;9.40;;;6.70;;
75340;SDS011;64931;47.562;18.920;2023-07-02T03:58:32;9.10;;;6.20;;
75340;SDS011;64931;47.562;18.920;2023-07-02T04:00:57;9.20;;;5.70;;
75340;SDS011;64931;47.562;18.920;2023-07-02T04:03:23;9.80;;;5.90;;
75340;SDS011;64931;47.562;18.920;2023-07-02T04:05:48;10.80;;;6.00;;
75340;SDS011;64931;47.562;18.920;2023-07-02T04:08:14;10.70;;;6.80;;
75340;SDS011;64931;47.562;18.920;2023-07-02T04:10:40;8.40;;;5.80;;
75340;SDS011;64931;47.562;18.920;2023-07-02T04:13:05;8.00;;;6.00;;
75340;SDS011;64931;47.562;18.920;2023-07-02T04:15:31;9.40;;;6.30;;
75340;SDS011;64931;47.562;18.920;2023-07-02T04:17:57;8.80;;;5.40;;
75340;SDS011;64931;47.562;18.920;2023-07-02T04:20:22;8.50;;;5.80;;
75340;SDS011;64931;47.562;18.920;2023-07-02T04:22:48;9.00;;;5.80;;
75340;SDS011;64931;47.562;18.920;2023-07-02T04:25:13;8.50;;;5.70;;
75340;SDS011;64931;47.562;18.920;2023-07-02T04:27:43;9.00;;;5.70;;
75340;SDS011;64931;47.562;18.920;2023-07-02T04:30:09;9.30;;;5.70;;
75340;SDS011;64931;47.562;18.920;2023-07-02T04:32:36;8.80;;;5.60;;
75340;SDS011;64931;47.562;18.920;2023-07-02T04:35:01;9.80;;;5.80;;
75340;SDS011;64931;47.562;18.920;2023-07-02T04:37:27;8.00;;;5.70;;
75340;SDS011;64931;47.562;18.920;2023-07-02T04:39:53;9.70;;;5.90;;
75340;SDS011;64931;47.562;18.920;2023-07-02T04:42:19;8.90;;;5.70;;
75340;SDS011;64931;47.562;18.920;2023-07-02T04:44:44;7.20;;;5.30;;
75340;SDS011;64931;47.562;18.920;2023-07-02T04:47:10;8.30;;;5.90;;
75340;SDS011;64931;47.562;18.920;2023-07-02T04:49:35;8.50;;;5.50;;
75340;SDS011;64931;47.562;18.920;2023-07-02T04:52:01;8.60;;;5.50;;
75340;SDS011;64931;47.562;18.920;2023-07-02T04:54:26;9.40;;;5.40;;
75340;SDS011;64931;47.562;18.920;2023-07-02T04:56:52;9.10;;;5.80;;
75340;SDS011;64931;47.562;18.920;2023-07-02T04:59:21;8.80;;;5.80;;
75340;SDS011;64931;47.562;18.920;2023-07-02T05:01:47;9.30;;;5.70;;
75340;SDS011;64931;47.562;18.920;2023-07-02T05:04:12;9.40;;;5.30;;
75340;SDS011;64931;47.562;18.920;2023-07-02T05:06:37;8.10;;;5.50;;
75340;SDS011;64931;47.562;18.920;2023-07-02T05:09:03;10.10;;;6.00;;
75340;SDS011;64931;47.562;18.920;2023-07-02T05:11:29;8.30;;;5.10;;
75340;SDS011;64931;47.562;18.920;2023-07-02T05:13:54;7.60;;;5.40;;
75340;SDS011;64931;47.562;18.920;2023-07-02T05:16:20;7.40;;;5.30;;
75340;SDS011;64931;47.562;18.920;2023-07-02T05:18:45;7.60;;;5.20;;
75340;SDS011;64931;47.562;18.920;2023-07-02T05:21:11;7.80;;;4.90;;
75340;SDS011;64931;47.562;18.920;2023-07-02T05:23:36;11.30;;;5.50;;
75340;SDS011;64931;47.562;18.920;2023-07-02T05:26:02;7.90;;;5.20;;
75340;SDS011;64931;47.562;18.920;2023-07-02T05:28:27;9.40;;;4.90;;
75340;SDS011;64931;47.562;18.920;2023-07-02T05:30:53;7.10;;;4.90;;
75340;SDS011;64931;47.562;18.920;2023-07-02T05:33:18;9.10;;;5.20;;
75340;SDS011;64931;47.562;18.920;2023-07-02T05:35:43;7.90;;;4.70;;
75340;SDS011;64931;47.562;18.920;2023-07-02T05:38:11;8.20;;;5.10;;
75340;SDS011;64931;47.562;18.920;2023-07-02T05:40:36;8.20;;;5.10;;
75340;SDS011;64931;47.562;18.920;2023-07-02T05:43:02;7.40;;;4.80;;
75340;SDS011;64931;47.562;18.920;2023-07-02T05:45:28;7.20;;;4.90;;
75340;SDS011;64931;47.562;18.920;2023-07-02T05:47:54;8.70;;;5.00;;
75340;SDS011;64931;47.562;18.920;2023-07-02T05:50:19;7.40;;;4.90;;
75340;SDS011;64931;47.562;18.920;2023-07-02T05:52:45;8.60;;;5.00;;
75340;SDS011;64931;47.562;18.920;2023-07-02T05:55:11;7.10;;;4.70;;
75340;SDS011;64931;47.562;18.920;2023-07-02T05:57:39;7.80;;;5.60;;
75340;SDS011;64931;47.562;18.920;2023-07-02T06:00:05;8.50;;;5.20;;
75340;SDS011;64931;47.562;18.920;2023-07-02T06:02:31;7.60;;;4.70;;
75340;SDS011;64931;47.562;18.920;2023-07-02T06:04:57;8.50;;;4.50;;
75340;SDS011;64931;47.562;18.920;2023-07-02T06:07:23;8.10;;;5.00;;
75340;SDS011;64931;47.562;18.920;2023-07-02T06:09:49;7.50;;;4.90;;
75340;SDS011;64931;47.562;18.920;2023-07-02T06:12:15;7.80;;;5.00;;
75340;SDS011;64931;47.562;18.920;2023-07-02T06:14:40;8.80;;;5.10;;
75340;SDS011;64931;47.562;18.920;2023-07-02T06:17:07;10.10;;;5.10;;
75340;SDS011;64931;47.562;18.920;2023-07-02T06:19:33;7.10;;;5.20;;
75340;SDS011;64931;47.562;18.920;2023-07-02T06:21:58;9.50;;;5.30;;
75340;SDS011;64931;47.562;18.920;2023-07-02T06:24:24;8.80;;;5.30;;
75340;SDS011;64931;47.562;18.920;2023-07-02T06:26:49;7.40;;;5.50;;
75340;SDS011;64931;47.562;18.920;2023-07-02T06:29:15;13.70;;;5.60;;
75340;SDS011;64931;47.562;18.920;2023-07-02T06:31:40;8.20;;;5.40;;
75340;SDS011;64931;47.562;18.920;2023-07-02T06:34:05;8.00;;;5.30;;
75340;SDS011;64931;47.562;18.920;2023-07-02T06:36:33;7.60;;;5.20;;
75340;SDS011;64931;47.562;18.920;2023-07-02T06:38:59;8.00;;;5.10;;
75340;SDS011;64931;47.562;18.920;2023-07-02T06:41:24;7.70;;;5.10;;
75340;SDS011;64931;47.562;18.920;2023-07-02T06:43:50;7.00;;;4.70;;
75340;SDS011;64931;47.562;18.920;2023-07-02T06:46:15;9.40;;;5.30;;
75340;SDS011;64931;47.562;18.920;2023-07-02T06:48:41;8.40;;;4.90;;
75340;SDS011;64931;47.562;18.920;2023-07-02T06:51:06;7.70;;;4.40;;
75340;SDS011;64931;47.562;18.920;2023-07-02T06:53:33;9.30;;;4.70;;
75340;SDS011;64931;47.562;18.920;2023-07-02T06:55:58;7.20;;;4.50;;
75340;SDS011;64931;47.562;18.920;2023-07-02T06:58:23;8.00;;;4.60;;
75340;SDS011;64931;47.562;18.920;2023-07-02T07:00:49;6.90;;;4.50;;
75340;SDS011;64931;47.562;18.920;2023-07-02T07:03:15;8.30;;;4.50;;
75340;SDS011;64931;47.562;18.920;2023-07-02T07:05:41;8.90;;;5.70;;
75340;SDS011;64931;47.562;18.920;2023-07-02T07:08:06;8.10;;;5.00;;
75340;SDS011;64931;47.562;18.920;2023-07-02T07:10:31;7.20;;;4.70;;
75340;SDS011;64931;47.562;18.920;2023-07-02T07:12:59;8.20;;;4.80;;
75340;SDS011;64931;47.562;18.920;2023-07-02T07:15:26;7.30;;;5.10;;
75340;SDS011;64931;47.562;18.920;2023-07-02T07:17:52;8.80;;;5.00;;
75340;SDS011;64931;47.562;18.920;2023-07-02T07:20:17;7.30;;;5.00;;
75340;SDS011;64931;47.562;18.920;2023-07-02T07:22:43;9.50;;;4.60;;
75340;SDS011;64931;47.562;18.920;2023-07-02T07:25:09;7.20;;;4.80;;
75340;SDS011;64931;47.562;18.920;2023-07-02T07:27:34;8.00;;;4.80;;
75340;SDS011;64931;47.562;18.920;2023-07-02T07:30:00;7.00;;;4.50;;
75340;SDS011;64931;47.562;18.920;2023-07-02T07:32:25;8.20;;;4.50;;
75340;SDS011;64931;47.562;18.920;2023-07-02T07:34:51;6.90;;;4.70;;
75340;SDS011;64931;47.562;18.920;2023-07-02T07:37:17;9.00;;;5.00;;
75340;SDS011;64931;47.562;18.920;2023-07-02T07:39:42;7.90;;;4.70;;
75340;SDS011;64931;47.562;18.920;2023-07-02T07:42:07;6.90;;;4.50;;
75340;SDS011;64931;47.562;18.920;2023-07-02T07:44:33;6.30;;;4.60;;
75340;SDS011;64931;47.562;18.920;2023-07-02T07:46:59;6.30;;;4.20;;
75340;SDS011;64931;47.562;18.920;2023-07-02T07:49:24;6.90;;;4.60;;
75340;SDS011;64931;47.562;18.920;2023-07-02T07:51:49;8.20;;;4.60;;
75340;SDS011;64931;47.562;18.920;2023-07-02T07:54:15;6.70;;;4.00;;
75340;SDS011;64931;47.562;18.920;2023-07-02T07:56:40;7.40;;;4.40;;
75340;SDS011;64931;47.562;18.920;2023-07-02T07:59:06;8.60;;;6.00;;
75340;SDS011;64931;47.562;18.920;2023-07-02T08:01:31;7.40;;;4.60;;
75340;SDS011;64931;47.562;18.920;2023-07-02T08:03:56;6.50;;;4.10;;
75340;SDS011;64931;47.562;18.920;2023-07-02T08:06:22;6.40;;;3.60;;
75340;SDS011;64931;47.562;18.920;2023-07-02T08:08:47;6.30;;;4.30;;
75340;SDS011;64931;47.562;18.920;2023-07-02T08:11:12;5.50;;;4.20;;
75340;SDS011;64931;47.562;18.920;2023-07-02T08:13:38;5.80;;;4.50;;
75340;SDS011;64931;47.562;18.920;2023-07-02T08:16:04;8.10;;;4.30;;
75340;SDS011;64931;47.562;18.920;2023-07-02T08:18:29;6.10;;;4.20;;
75340;SDS011;64931;47.562;18.920;2023-07-02T08:20:55;6.70;;;3.90;;
75340;SDS011;64931;47.562;18.920;2023-07-02T08:23:20;5.50;;;3.80;;
75340;SDS011;64931;47.562;18.920;2023-07-02T08:25:45;6.30;;;4.20;;
75340;SDS011;64931;47.562;18.920;2023-07-02T08:28:11;7.40;;;4.20;;
75340;SDS011;64931;47.562;18.920;2023-07-02T08:30:36;7.10;;;4.40;;
75340;SDS011;64931;47.562;18.920;2023-07-02T08:33:01;7.00;;;4.40;;
75340;SDS011;64931;47.562;18.920;2023-07-02T08:35:27;9.50;;;4.70;;
75340;SDS011;64931;47.562;18.920;2023-07-02T08:37:52;6.80;;;4.20;;
75340;SDS011;64931;47.562;18.920;2023-07-02T08:40:18;6.90;;;4.20;;
75340;SDS011;64931;47.562;18.920;2023-07-02T08:42:47;6.30;;;4.50;;
75340;SDS011;64931;47.562;18.920;2023-07-02T08:45:14;6.60;;;4.80;;
75340;SDS011;64931;47.562;18.920;2023-07-02T08:47:41;7.80;;;5.00;;
75340;SDS011;64931;47.562;18.920;2023-07-02T08:50:08;7.70;;;4.90;;
75340;SDS011;64931;47.562;18.920;2023-07-02T08:52:33;9.40;;;4.90;;
75340;SDS011;64931;47.562;18.920;2023-07-02T08:54:59;9.30;;;5.10;;
75340;SDS011;64931;47.562;18.920;2023-07-02T08:57:24;9.10;;;4.50;;
75340;SDS011;64931;47.562;18.920;2023-07-02T08:59:49;7.70;;;5.00;;
75340;SDS011;64931;47.562;18.920;2023-07-02T09:02:16;7.00;;;4.90;;
75340;SDS011;64931;47.562;18.920;2023-07-02T09:04:42;8.90;;;4.80;;
75340;SDS011;64931;47.562;18.920;2023-07-02T09:07:08;9.30;;;4.90;;
75340;SDS011;64931;47.562;18.920;2023-07-02T09:09:44;9.50;;;4.70;;
75340;SDS011;64931;47.562;18.920;2023-07-02T09:12:21;7.10;;;4.50;;
75340;SDS011;64931;47.562;18.920;2023-07-02T09:14:47;6.30;;;4.70;;
75340;SDS011;64931;47.562;18.920;2023-07-02T09:17:26;7.70;;;4.70;;
75340;SDS011;64931;47.562;18.920;2023-07-02T09:19:54;8.00;;;4.80;;
75340;SDS011;64931;47.562;18.920;2023-07-02T09:22:19;8.40;;;4.80;;
75340;SDS011;64931;47.562;18.920;2023-07-02T09:25:03;7.00;;;4.30;;
75340;SDS011;64931;47.562;18.920;2023-07-02T09:27:38;7.30;;;4.40;;
75340;SDS011;64931;47.562;18.920;2023-07-02T09:30:14;8.00;;;4.70;;
75340;SDS011;64931;47.562;18.920;2023-07-02T09:32:43;6.20;;;4.70;;
75340;SDS011;64931;47.562;18.920;2023-07-02T09:35:10;6.20;;;4.70;;
75340;SDS011;64931;47.562;18.920;2023-07-02T09:37:35;9.70;;;4.70;;
75340;SDS011;64931;47.562;18.920;2023-07-02T09:40:01;5.90;;;4.20;;
75340;SDS011;64931;47.562;18.920;2023-07-02T09:42:30;6.30;;;4.70;;
75340;SDS011;64931;47.562;18.920;2023-07-02T09:44:57;7.00;;;4.20;;
75340;SDS011;64931;47.562;18.920;2023-07-02T09:47:24;6.70;;;4.60;;
75340;SDS011;64931;47.562;18.920;2023-07-02T09:49:54;7.60;;;4.10;;
75340;SDS011;64931;47.562;18.920;2023-07-02T09:52:20;6.40;;;4.40;;
75340;SDS011;64931;47.562;18.920;2023-07-02T09:54:46;6.10;;;4.10;;
75340;SDS011;64931;47.562;18.920;2023-07-02T09:57:12;5.80;;;4.30;;
75340;SDS011;64931;47.562;18.920;2023-07-02T09:59:37;6.90;;;4.30;;
75340;SDS011;64931;47.562;18.920;2023-07-02T10:02:04;5.80;;;4.30;;
75340;SDS011;64931;47.562;18.920;2023-07-02T10:04:39;7.70;;;4.10;;
75340;SDS011;64931;47.562;18.920;2023-07-02T10:07:05;7.60;;;4.50;;
75340;SDS011;64931;47.562;18.920;2023-07-02T10:09:40;5.80;;;4.20;;
75340;SDS011;64931;47.562;18.920;2023-07-02T10:12:21;6.90;;;4.90;;
75340;SDS011;64931;47.562;18.920;2023-07-02T10:14:48;6.60;;;4.10;;
75340;SDS011;64931;47.562;18.920;2023-07-02T10:17:24;7.80;;;4.10;;
75340;SDS011;64931;47.562;18.920;2023-07-02T10:19:54;6.80;;;4.10;;
75340;SDS011;64931;47.562;18.920;2023-07-02T10:22:20;5.80;;;4.40;;
75340;SDS011;64931;47.562;18.920;2023-07-02T10:27:32;6.80;;;4.20;;
75340;SDS011;64931;47.562;18.920;2023-07-02T10:30:08;6.70;;;4.00;;
75340;SDS011;64931;47.562;18.920;2023-07-02T10:32:35;7.00;;;4.10;;
75340;SDS011;64931;47.562;18.920;2023-07-02T10:35:01;7.00;;;3.90;;
75340;SDS011;64931;47.562;18.920;2023-07-02T10:37:37;8.20;;;4.20;;
75340;SDS011;64931;47.562;18.920;2023-07-02T10:40:04;6.60;;;4.00;;
75340;SDS011;64931;47.562;18.920;2023-07-02T10:42:32;9.80;;;4.40;;
75340;SDS011;64931;47.562;18.920;2023-07-02T10:44:59;8.40;;;4.50;;
75340;SDS011;64931;47.562;18.920;2023-07-02T10:47:24;6.00;;;3.90;;
75340;SDS011;64931;47.562;18.920;2023-07-02T10:49:50;6.50;;;4.10;;
75340;SDS011;64931;47.562;18.920;2023-07-02T10:52:15;7.40;;;4.00;;
75340;SDS011;64931;47.562;18.920;2023-07-02T10:54:41;8.70;;;3.90;;
75340;SDS011;64931;47.562;18.920;2023-07-02T10:57:12;6.40;;;4.20;;
75340;SDS011;64931;47.562;18.920;2023-07-02T10:59:38;6.70;;;4.00;;
75340;SDS011;64931;47.562;18.920;2023-07-02T11:02:04;8.10;;;4.20;;
75340;SDS011;64931;47.562;18.920;2023-07-02T11:04:31;6.40;;;3.80;;
75340;SDS011;64931;47.562;18.920;2023-07-02T11:06:58;5.80;;;4.10;;
75340;SDS011;64931;47.562;18.920;2023-07-02T11:09:25;6.90;;;4.10;;
75340;SDS011;64931;47.562;18.920;2023-07-02T11:11:55;6.20;;;3.90;;
75340;SDS011;64931;47.562;18.920;2023-07-02T11:14:34;6.50;;;4.10;;
75340;SDS011;64931;47.562;18.920;2023-07-02T11:17:02;6.90;;;3.80;;
75340;SDS011;64931;47.562;18.920;2023-07-02T11:19:30;6.50;;;3.90;;
75340;SDS011;64931;47.562;18.920;2023-07-02T11:21:59;8.60;;;3.90;;
75340;SDS011;64931;47.562;18.920;2023-07-02T11:27:01;6.80;;;3.70;;
75340;SDS011;64931;47.562;18.920;2023-07-02T11:29:33;7.40;;;4.00;;
75340;SDS011;64931;47.562;18.920;2023-07-02T11:32:09;6.30;;;3.80;;
75340;SDS011;64931;47.562;18.920;2023-07-02T11:34:37;6.20;;;4.00;;
75340;SDS011;64931;47.562;18.920;2023-07-02T11:37:03;4.80;;;3.60;;
75340;SDS011;64931;47.562;18.920;2023-07-02T11:39:30;4.90;;;3.70;;
75340;SDS011;64931;47.562;18.920;2023-07-02T11:41:55;5.60;;;3.70;;
75340;SDS011;64931;47.562;18.920;2023-07-02T11:44:21;7.60;;;3.60;;
75340;SDS011;64931;47.562;18.920;2023-07-02T11:46:47;9.80;;;3.70;;
75340;SDS011;64931;47.562;18.920;2023-07-02T11:49:13;6.30;;;3.80;;
75340;SDS011;64931;47.562;18.920;2023-07-02T11:51:39;7.10;;;3.70;;
75340;SDS011;64931;47.562;18.920;2023-07-02T11:54:05;5.10;;;3.50;;
75340;SDS011;64931;47.562;18.920;2023-07-02T11:56:31;8.50;;;4.00;;
75340;SDS011;64931;47.562;18.920;2023-07-02T11:58:56;5.50;;;3.80;;
75340;SDS011;64931;47.562;18.920;2023-07-02T12:01:22;6.40;;;3.90;;
75340;SDS011;64931;47.562;18.920;2023-07-02T12:03:47;5.20;;;3.60;;
75340;SDS011;64931;47.562;18.920;2023-07-02T12:06:13;6.10;;;3.70;;
75340;SDS011;64931;47.562;18.920;2023-07-02T12:08:38;5.60;;;3.50;;
75340;SDS011;64931;47.562;18.920;2023-07-02T12:11:04;6.40;;;3.60;;
75340;SDS011;64931;47.562;18.920;2023-07-02T12:13:29;7.80;;;3.60;;
75340;SDS011;64931;47.562;18.920;2023-07-02T12:15:55;7.40;;;3.80;;
75340;SDS011;64931;47.562;18.920;2023-07-02T12:18:20;5.20;;;3.70;;
75340;SDS011;64931;47.562;18.920;2023-07-02T12:20:45;6.90;;;3.30;;
75340;SDS011;64931;47.562;18.920;2023-07-02T12:23:11;5.30;;;3.20;;
75340;SDS011;64931;47.562;18.920;2023-07-02T12:25:37;4.20;;;2.80;;
75340;SDS011;64931;47.562;18.920;2023-07-02T12:28:03;7.50;;;3.10;;
75340;SDS011;64931;47.562;18.920;2023-07-02T12:30:29;5.40;;;2.80;;
75340;SDS011;64931;47.562;18.920;2023-07-02T12:32:55;4.90;;;2.90;;
75340;SDS011;64931;47.562;18.920;2023-07-02T12:35:20;6.90;;;2.80;;
75340;SDS011;64931;47.562;18.920;2023-07-02T12:37:46;4.10;;;2.70;;
75340;SDS011;64931;47.562;18.920;2023-07-02T12:40:13;4.40;;;2.60;;
75340;SDS011;64931;47.562;18.920;2023-07-02T12:42:42;4.80;;;2.80;;
75340;SDS011;64931;47.562;18.920;2023-07-02T12:45:09;5.00;;;3.10;;
75340;SDS011;64931;47.562;18.920;2023-07-02T12:47:35;6.50;;;2.70;;
75340;SDS011;64931;47.562;18.920;2023-07-02T12:50:01;5.60;;;2.80;;
75340;SDS011;64931;47.562;18.920;2023-07-02T12:52:27;5.10;;;2.60;;
75340;SDS011;64931;47.562;18.920;2023-07-02T12:54:53;4.60;;;2.20;;
75340;SDS011;64931;47.562;18.920;2023-07-02T12:57:19;3.50;;;2.10;;
75340;SDS011;64931;47.562;18.920;2023-07-02T12:59:44;3.90;;;1.90;;
75340;SDS011;64931;47.562;18.920;2023-07-02T13:02:10;6.10;;;2.50;;
75340;SDS011;64931;47.562;18.920;2023-07-02T13:04:36;5.10;;;1.90;;
75340;SDS011;64931;47.562;18.920;2023-07-02T13:07:01;3.70;;;1.70;;
75340;SDS011;64931;47.562;18.920;2023-07-02T13:09:27;3.10;;;1.60;;
75340;SDS011;64931;47.562;18.920;2023-07-02T13:11:52;4.40;;;1.60;;
75340;SDS011;64931;47.562;18.920;2023-07-02T13:14:17;2.90;;;1.60;;
75340;SDS011;64931;47.562;18.920;2023-07-02T13:16:43;4.00;;;1.70;;
75340;SDS011;64931;47.562;18.920;2023-07-02T13:19:08;3.30;;;1.60;;
75340;SDS011;64931;47.562;18.920;2023-07-02T13:21:34;2.20;;;1.40;;
75340;SDS011;64931;47.562;18.920;2023-07-02T13:23:59;2.00;;;1.20;;
75340;SDS011;64931;47.562;18.920;2023-07-02T13:26:24;3.00;;;1.10;;
75340;SDS011;64931;47.562;18.920;2023-07-02T13:28:50;2.40;;;1.40;;
75340;SDS011;64931;47.562;18.920;2023-07-02T13:31:15;3.00;;;1.20;;
75340;SDS011;64931;47.562;18.920;2023-07-02T13:33:41;2.80;;;1.20;;
75340;SDS011;64931;47.562;18.920;2023-07-02T13:36:07;3.10;;;1.40;;
75340;SDS011;64931;47.562;18.920;2023-07-02T13:38:33;2.90;;;1.40;;
75340;SDS011;64931;47.562;18.920;2023-07-02T13:40:58;2.70;;;1.60;;
75340;SDS011;64931;47.562;18.920;2023-07-02T13:43:24;2.20;;;1.40;;
75340;SDS011;64931;47.562;18.920;2023-07-02T13:45:50;2.50;;;1.30;;
75340;SDS011;64931;47.562;18.920;2023-07-02T13:48:15;3.50;;;1.50;;
75340;SDS011;64931;47.562;18.920;2023-07-02T13:50:40;3.50;;;1.60;;
75340;SDS011;64931;47.562;18.920;2023-07-02T13:53:07;4.00;;;1.60;;
75340;SDS011;64931;47.562;18.920;2023-07-02T13:55:33;2.80;;;1.60;;
75340;SDS011;64931;47.562;18.920;2023-07-02T13:57:59;4.60;;;1.80;;
75340;SDS011;64931;47.562;18.920;2023-07-02T14:00:28;3.70;;;1.80;;
75340;SDS011;64931;47.562;18.920;2023-07-02T14:02:53;3.90;;;2.00;;
75340;SDS011;64931;47.562;18.920;2023-07-02T14:05:19;3.20;;;1.90;;
75340;SDS011;64931;47.562;18.920;2023-07-02T14:07:46;2.90;;;1.60;;
75340;SDS011;64931;47.562;18.920;2023-07-02T14:10:12;3.30;;;2.00;;
75340;SDS011;64931;47.562;18.920;2023-07-02T14:12:41;3.20;;;1.90;;
75340;SDS011;64931;47.562;18.920;2023-07-02T14:15:07;2.80;;;1.80;;
75340;SDS011;64931;47.562;18.920;2023-07-02T14:17:34;3.00;;;1.80;;
75340;SDS011;64931;47.562;18.920;2023-07-02T14:20:00;4.20;;;1.70;;
75340;SDS011;64931;47.562;18.920;2023-07-02T14:22:26;3.20;;;1.60;;
75340;SDS011;64931;47.562;18.920;2023-07-02T14:24:51;3.10;;;1.80;;
75340;SDS011;64931;47.562;18.920;2023-07-02T14:27:16;4.40;;;1.90;;
75340;SDS011;64931;47.562;18.920;2023-07-02T14:29:42;5.40;;;1.80;;
75340;SDS011;64931;47.562;18.920;2023-07-02T14:32:08;3.50;;;1.90;;